クェゼリン環礁 の空港の天気 - METARとTAF

バックホルツ陸軍飛行場 ( PKWA / KWA ) - マーシャル諸島 クェゼリン環礁
飛行場実況気象(Metar)
観測時間06/18 11:40 MHT (06/17 23:40 UTC)
風向・風速東北東 7m/s
視程10km以上
天気現象
全天の4割程度の雲 雲底高度 640m
全天の8割程度の雲 雲底高度 940m
全天の8割程度の雲 雲底高度 1220m
気温30.4℃
湿度73%
気圧1010hPa
METARPKWA 172340Z AUTO 07013KT 10SM SCT021 BKN031 BKN040 30/25 A2983 RMK AO2 T03040250
過去の天気等 Google飛行場航空写真 Wunderground天気予報

過去48時間のMETAR

飛行場予報(TAF)
発表時間: 6/18 11:21 MHT (6/17 23:21 UTC)
予報対象時間: 18日12時 MHT ~ 19日12時 MHT
風向・風速東北東 6m/s
視程10km以上
全天の4割程度の雲 雲底高度 610m
全天の4割程度の雲 雲底高度 1370m
全天の8割程度の雲 雲底高度 4570m
PKWA 172321Z 1800/1824 07012KT P6SM SCT020 SCT045 BKN150